JLY1207 SBIL-SBSP
Flight info
| Callsign | JLY1207 |
|---|---|
| Flight time | 2h 0m |
| Altitude | 14500 |
| Route | DENDE/N0452F340 IFR DCT OBDUV DCT MIMIP UZ30 ENTIT |
| Aircraft | B738/M-SDFGIKRWY/LB1 |
Departure
| Time | 2026-05-04 14:13 |
|---|---|
| Airport | Bahia - Jorge Amado Airport (SBIL) |
Arrival
| Time | 2026-05-04 16:14 |
|---|---|
| Airport | Congonhas–Deputado Freitas Nobre Airport (SBSP) |
| Time | Latitude | Longitude | Altitude | Speed | Heading |
|---|---|---|---|---|---|
| 2026-05-04 13:37 | -14.81446 | -39.03186 | 26 ft | 0 kts | 46° |
| 2026-05-04 14:02 | -14.81455 | -39.03194 | 26 ft | 2 kts | 21° |
| 2026-05-04 14:02 | -14.81469 | -39.03196 | 26 ft | 1 kts | 12° |
| 2026-05-04 14:02 | -14.81480 | -39.03205 | 26 ft | 2 kts | 65° |
| 2026-05-04 14:02 | -14.81483 | -39.03215 | 26 ft | 0 kts | 96° |
| 2026-05-04 14:03 | -14.81483 | -39.03217 | 26 ft | 0 kts | 97° |
| 2026-05-04 14:05 | -14.81483 | -39.03206 | 26 ft | 3 kts | 90° |
| 2026-05-04 14:05 | -14.81483 | -39.03170 | 26 ft | 6 kts | 89° |
| 2026-05-04 14:05 | -14.81483 | -39.03125 | 26 ft | 6 kts | 89° |
| 2026-05-04 14:06 | -14.81500 | -39.03083 | 26 ft | 7 kts | 156° |
| 2026-05-04 14:06 | -14.81562 | -39.03087 | 26 ft | 9 kts | 206° |
| 2026-05-04 14:06 | -14.81587 | -39.03155 | 25 ft | 11 kts | 268° |
| 2026-05-04 14:06 | -14.81589 | -39.03250 | 25 ft | 14 kts | 269° |
| 2026-05-04 14:07 | -14.81593 | -39.03359 | 25 ft | 16 kts | 267° |
| 2026-05-04 14:07 | -14.81596 | -39.03486 | 25 ft | 18 kts | 269° |
| 2026-05-04 14:07 | -14.81599 | -39.03629 | 24 ft | 21 kts | 268° |
| 2026-05-04 14:07 | -14.81603 | -39.03783 | 24 ft | 21 kts | 268° |
| 2026-05-04 14:08 | -14.81609 | -39.03935 | 24 ft | 20 kts | 269° |
| 2026-05-04 14:08 | -14.81601 | -39.04012 | 24 ft | 6 kts | 289° |
| 2026-05-04 14:08 | -14.81605 | -39.04022 | 23 ft | 1 kts | 146° |
| 2026-05-04 14:08 | -14.81609 | -39.04012 | 24 ft | 1 kts | 96° |
| 2026-05-04 14:09 | -14.81609 | -39.04007 | 24 ft | 0 kts | 90° |
| 2026-05-04 14:13 | -14.81605 | -39.03833 | 24 ft | 66 kts | 89° |
| 2026-05-04 14:13 | -14.81582 | -39.03051 | 26 ft | 145 kts | 88° |
| 2026-05-04 14:13 | -14.81540 | -39.01980 | 651 ft | 150 kts | 91° |
| 2026-05-04 14:14 | -14.81513 | -39.00865 | 1255 ft | 163 kts | 92° |
| 2026-05-04 14:14 | -14.81435 | -38.98601 | 2721 ft | 156 kts | 90° |
| 2026-05-04 14:14 | -14.81344 | -38.97451 | 3214 ft | 167 kts | 89° |
| 2026-05-04 14:15 | -14.82572 | -38.95531 | 4180 ft | 188 kts | 162° |
| 2026-05-04 14:15 | -14.85188 | -38.96306 | 5195 ft | 233 kts | 226° |
| 2026-05-04 14:16 | -14.87187 | -38.99258 | 6315 ft | 268 kts | 230° |
| 2026-05-04 14:16 | -14.88356 | -39.00826 | 6968 ft | 280 kts | 228° |
| 2026-05-04 14:17 | -14.90865 | -39.04000 | 8554 ft | 293 kts | 227° |
| 2026-05-04 14:17 | -14.92169 | -39.05644 | 9419 ft | 297 kts | 228° |
| 2026-05-04 14:17 | -14.94808 | -39.08982 | 10827 ft | 314 kts | 228° |
| 2026-05-04 14:18 | -14.96225 | -39.10773 | 11360 ft | 328 kts | 229° |
| 2026-05-04 14:18 | -14.99252 | -39.14606 | 12319 ft | 358 kts | 229° |
| 2026-05-04 14:19 | -15.02516 | -39.18750 | 13233 ft | 384 kts | 229° |
| 2026-05-04 14:19 | -15.04216 | -39.20910 | 13930 ft | 387 kts | 230° |
| 2026-05-04 14:19 | -15.05928 | -39.23089 | 14420 ft | 392 kts | 230° |
| 2026-05-04 14:19 | -15.07659 | -39.25292 | 14728 ft | 400 kts | 230° |
| 2026-05-04 14:20 | -15.09384 | -39.27488 | 15688 ft | 393 kts | 230° |
| 2026-05-04 14:20 | -15.11111 | -39.29688 | 16351 ft | 395 kts | 230° |
| 2026-05-04 14:20 | -15.12861 | -39.31917 | 16990 ft | 398 kts | 230° |
| 2026-05-04 14:21 | -15.16385 | -39.36407 | 18199 ft | 405 kts | 230° |
| 2026-05-04 14:21 | -15.18177 | -39.38690 | 18792 ft | 408 kts | 230° |
| 2026-05-04 14:21 | -15.19965 | -39.40970 | 19396 ft | 410 kts | 231° |
| 2026-05-04 14:21 | -15.21767 | -39.43266 | 19969 ft | 413 kts | 231° |
| 2026-05-04 14:22 | -15.23578 | -39.45574 | 20573 ft | 415 kts | 231° |
| 2026-05-04 14:22 | -15.25400 | -39.47897 | 21099 ft | 419 kts | 231° |
| 2026-05-04 14:22 | -15.27239 | -39.50241 | 21607 ft | 423 kts | 231° |
| 2026-05-04 14:22 | -15.29116 | -39.52644 | 22179 ft | 425 kts | 232° |
| 2026-05-04 14:23 | -15.32599 | -39.57591 | 23240 ft | 430 kts | 236° |
| 2026-05-04 14:23 | -15.34287 | -39.60159 | 23757 ft | 432 kts | 236° |
| 2026-05-04 14:23 | -15.35980 | -39.62761 | 24266 ft | 435 kts | 237° |
| 2026-05-04 14:24 | -15.37661 | -39.65345 | 24775 ft | 438 kts | 237° |
| 2026-05-04 14:24 | -15.39387 | -39.67986 | 25253 ft | 441 kts | 237° |
| 2026-05-04 14:24 | -15.41098 | -39.70593 | 25754 ft | 443 kts | 237° |
| 2026-05-04 14:24 | -15.42845 | -39.73244 | 26243 ft | 445 kts | 237° |
| 2026-05-04 14:25 | -15.44603 | -39.75903 | 26690 ft | 448 kts | 236° |
| 2026-05-04 14:25 | -15.48127 | -39.81216 | 27690 ft | 451 kts | 236° |
| 2026-05-04 14:25 | -15.49914 | -39.83907 | 28094 ft | 454 kts | 236° |
| 2026-05-04 14:26 | -15.51720 | -39.86623 | 28523 ft | 457 kts | 236° |
| 2026-05-04 14:26 | -15.53520 | -39.89332 | 28941 ft | 459 kts | 236° |
| 2026-05-04 14:26 | -15.55348 | -39.92081 | 29345 ft | 462 kts | 236° |
| 2026-05-04 14:26 | -15.57166 | -39.94817 | 29789 ft | 463 kts | 236° |
| 2026-05-04 14:27 | -15.58984 | -39.97553 | 30267 ft | 463 kts | 236° |
| 2026-05-04 14:27 | -15.60806 | -40.00295 | 30975 ft | 457 kts | 236° |
| 2026-05-04 14:27 | -15.62586 | -40.02976 | 31723 ft | 450 kts | 236° |
| 2026-05-04 14:27 | -15.64328 | -40.05600 | 32369 ft | 445 kts | 236° |
| 2026-05-04 14:28 | -15.66091 | -40.08257 | 32940 ft | 441 kts | 236° |
| 2026-05-04 14:28 | -15.67815 | -40.10856 | 33486 ft | 439 kts | 237° |
| 2026-05-04 14:28 | -15.69531 | -40.13444 | 34004 ft | 437 kts | 237° |
| 2026-05-04 14:28 | -15.71273 | -40.16074 | 34159 ft | 442 kts | 237° |
| 2026-05-04 14:29 | -15.74736 | -40.21308 | 34742 ft | 440 kts | 237° |
| 2026-05-04 14:29 | -15.78156 | -40.26476 | 36025 ft | 429 kts | 237° |
| 2026-05-04 14:30 | -15.79855 | -40.29046 | 36164 ft | 432 kts | 237° |
| 2026-05-04 14:30 | -15.81546 | -40.31606 | 36166 ft | 432 kts | 237° |
| 2026-05-04 14:31 | -15.86613 | -40.39275 | 36170 ft | 429 kts | 237° |
| 2026-05-04 14:32 | -15.93373 | -40.49520 | 36172 ft | 429 kts | 237° |
| 2026-05-04 14:32 | -15.96731 | -40.54615 | 36176 ft | 428 kts | 237° |
| 2026-05-04 14:33 | -16.00094 | -40.59720 | 36175 ft | 428 kts | 237° |
| 2026-05-04 14:33 | -16.03441 | -40.64804 | 36177 ft | 427 kts | 237° |
| 2026-05-04 14:34 | -16.06810 | -40.69926 | 36176 ft | 428 kts | 237° |
| 2026-05-04 14:34 | -16.10169 | -40.75036 | 36183 ft | 427 kts | 238° |
| 2026-05-04 14:35 | -16.13516 | -40.80131 | 36182 ft | 427 kts | 238° |
| 2026-05-04 14:35 | -16.16852 | -40.85211 | 36179 ft | 426 kts | 238° |
| 2026-05-04 14:36 | -16.20192 | -40.90302 | 36183 ft | 426 kts | 238° |
| 2026-05-04 14:36 | -16.23507 | -40.95358 | 36179 ft | 424 kts | 238° |
| 2026-05-04 14:37 | -16.26835 | -41.00438 | 36177 ft | 424 kts | 238° |
| 2026-05-04 14:37 | -16.30157 | -41.05515 | 36187 ft | 426 kts | 238° |
| 2026-05-04 14:38 | -16.33487 | -41.10603 | 36187 ft | 425 kts | 238° |
| 2026-05-04 14:38 | -16.36804 | -41.15677 | 36190 ft | 425 kts | 238° |
| 2026-05-04 14:39 | -16.40120 | -41.20752 | 36190 ft | 425 kts | 238° |
| 2026-05-04 14:39 | -16.43449 | -41.25851 | 36182 ft | 424 kts | 238° |
| 2026-05-04 14:40 | -16.48418 | -41.33471 | 36181 ft | 423 kts | 238° |
| 2026-05-04 14:40 | -16.51707 | -41.38518 | 36181 ft | 423 kts | 238° |
| 2026-05-04 14:41 | -16.54999 | -41.43572 | 36185 ft | 422 kts | 238° |
| 2026-05-04 14:42 | -16.61587 | -41.53700 | 36191 ft | 421 kts | 238° |
| 2026-05-04 14:42 | -16.64879 | -41.58766 | 36196 ft | 422 kts | 238° |
| 2026-05-04 14:43 | -16.68165 | -41.63827 | 36202 ft | 423 kts | 238° |
| 2026-05-04 14:43 | -16.71470 | -41.68920 | 36205 ft | 422 kts | 238° |
| 2026-05-04 14:44 | -16.74757 | -41.73988 | 36212 ft | 422 kts | 238° |
| 2026-05-04 14:44 | -16.78022 | -41.79027 | 36209 ft | 421 kts | 238° |
| 2026-05-04 14:45 | -16.81289 | -41.84073 | 36208 ft | 419 kts | 238° |
| 2026-05-04 14:45 | -16.84566 | -41.89137 | 36202 ft | 419 kts | 238° |
| 2026-05-04 14:46 | -16.87973 | -41.94074 | 36201 ft | 422 kts | 233° |
| 2026-05-04 14:46 | -16.91887 | -41.98617 | 36198 ft | 422 kts | 230° |
| 2026-05-04 14:47 | -16.95970 | -42.03019 | 36201 ft | 422 kts | 229° |
| 2026-05-04 14:47 | -17.00075 | -42.07415 | 36205 ft | 422 kts | 229° |
| 2026-05-04 14:48 | -17.04167 | -42.11821 | 36207 ft | 421 kts | 229° |
| 2026-05-04 14:48 | -17.08240 | -42.16228 | 36207 ft | 422 kts | 229° |
| 2026-05-04 14:49 | -17.12288 | -42.20624 | 36210 ft | 421 kts | 229° |
| 2026-05-04 14:49 | -17.16381 | -42.25076 | 36212 ft | 422 kts | 229° |
| 2026-05-04 14:50 | -17.20427 | -42.29483 | 36209 ft | 422 kts | 229° |
| 2026-05-04 14:50 | -17.24515 | -42.33934 | 36222 ft | 422 kts | 230° |
| 2026-05-04 14:51 | -17.28566 | -42.38351 | 36221 ft | 422 kts | 230° |
| 2026-05-04 14:51 | -17.32610 | -42.42763 | 36230 ft | 420 kts | 230° |
| 2026-05-04 14:52 | -17.36652 | -42.47174 | 36234 ft | 420 kts | 229° |
| 2026-05-04 14:52 | -17.40697 | -42.51591 | 36236 ft | 420 kts | 230° |
| 2026-05-04 14:53 | -17.44736 | -42.56007 | 36239 ft | 418 kts | 229° |
| 2026-05-04 14:53 | -17.48751 | -42.60400 | 36242 ft | 419 kts | 229° |
| 2026-05-04 14:54 | -17.52794 | -42.64824 | 36241 ft | 420 kts | 230° |
| 2026-05-04 14:54 | -17.56820 | -42.69233 | 36241 ft | 418 kts | 230° |
| 2026-05-04 14:55 | -17.60831 | -42.73629 | 36253 ft | 418 kts | 230° |
| 2026-05-04 14:55 | -17.64841 | -42.78028 | 36256 ft | 417 kts | 230° |
| 2026-05-04 14:56 | -17.68861 | -42.82441 | 36259 ft | 417 kts | 230° |
| 2026-05-04 14:56 | -17.72869 | -42.86845 | 36263 ft | 417 kts | 230° |
| 2026-05-04 14:57 | -17.76875 | -42.91246 | 36264 ft | 417 kts | 230° |
| 2026-05-04 14:57 | -17.80872 | -42.95641 | 36267 ft | 416 kts | 230° |
| 2026-05-04 14:58 | -17.84853 | -43.00023 | 36267 ft | 416 kts | 230° |
| 2026-05-04 14:58 | -17.88853 | -43.04430 | 36270 ft | 416 kts | 230° |
| 2026-05-04 14:59 | -17.92825 | -43.08807 | 36272 ft | 415 kts | 230° |
| 2026-05-04 15:00 | -17.98793 | -43.15390 | 36272 ft | 414 kts | 230° |
| 2026-05-04 15:00 | -18.02767 | -43.19776 | 36271 ft | 414 kts | 230° |
| 2026-05-04 15:01 | -18.08716 | -43.26352 | 36268 ft | 414 kts | 230° |
| 2026-05-04 15:01 | -18.12696 | -43.30756 | 36271 ft | 414 kts | 230° |
| 2026-05-04 15:02 | -18.16653 | -43.35137 | 36271 ft | 413 kts | 230° |
| 2026-05-04 15:02 | -18.20595 | -43.39502 | 36269 ft | 412 kts | 230° |
| 2026-05-04 15:03 | -18.23899 | -43.43164 | 36271 ft | 411 kts | 230° |
| 2026-05-04 15:03 | -18.28476 | -43.48240 | 36277 ft | 411 kts | 230° |
| 2026-05-04 15:04 | -18.32400 | -43.52596 | 36280 ft | 410 kts | 230° |
| 2026-05-04 15:04 | -18.36332 | -43.56961 | 36281 ft | 410 kts | 230° |
| 2026-05-04 15:05 | -18.40235 | -43.61297 | 36285 ft | 409 kts | 230° |
| 2026-05-04 15:05 | -18.44159 | -43.65663 | 36284 ft | 410 kts | 230° |
| 2026-05-04 15:06 | -18.48062 | -43.70011 | 36286 ft | 410 kts | 230° |
| 2026-05-04 15:07 | -18.53945 | -43.76564 | 36276 ft | 410 kts | 230° |
| 2026-05-04 15:07 | -18.57858 | -43.80927 | 36261 ft | 410 kts | 230° |
| 2026-05-04 15:08 | -18.61757 | -43.85278 | 36254 ft | 409 kts | 230° |
| 2026-05-04 15:08 | -18.65690 | -43.89672 | 36250 ft | 411 kts | 230° |
| 2026-05-04 15:09 | -18.69600 | -43.94042 | 36237 ft | 409 kts | 230° |
| 2026-05-04 15:09 | -18.73506 | -43.98408 | 36223 ft | 409 kts | 230° |
| 2026-05-04 15:10 | -18.79344 | -44.04939 | 36213 ft | 409 kts | 230° |
| 2026-05-04 15:11 | -18.85190 | -44.11488 | 36211 ft | 408 kts | 230° |
| 2026-05-04 15:11 | -18.89064 | -44.15833 | 36213 ft | 408 kts | 230° |
| 2026-05-04 15:12 | -18.92960 | -44.20206 | 36212 ft | 408 kts | 230° |
| 2026-05-04 15:12 | -18.96824 | -44.24544 | 36214 ft | 406 kts | 230° |
| 2026-05-04 15:13 | -19.00707 | -44.28909 | 36213 ft | 407 kts | 230° |
| 2026-05-04 15:13 | -19.04572 | -44.33257 | 36217 ft | 406 kts | 230° |
| 2026-05-04 15:14 | -19.08459 | -44.37632 | 36222 ft | 406 kts | 230° |
| 2026-05-04 15:14 | -19.12309 | -44.41969 | 36222 ft | 406 kts | 231° |
| 2026-05-04 15:15 | -19.16170 | -44.46320 | 36224 ft | 407 kts | 230° |
| 2026-05-04 15:15 | -19.20042 | -44.50689 | 36223 ft | 406 kts | 230° |
| 2026-05-04 15:16 | -19.25834 | -44.57230 | 36225 ft | 406 kts | 230° |
| 2026-05-04 15:17 | -19.31606 | -44.63754 | 36225 ft | 405 kts | 230° |
| 2026-05-04 15:17 | -19.37382 | -44.70290 | 36225 ft | 404 kts | 231° |
| 2026-05-04 15:18 | -19.41217 | -44.74630 | 36225 ft | 403 kts | 231° |
| 2026-05-04 15:19 | -19.46966 | -44.81148 | 36223 ft | 403 kts | 231° |
| 2026-05-04 15:19 | -19.52731 | -44.87642 | 36217 ft | 405 kts | 229° |
| 2026-05-04 15:20 | -19.56952 | -44.91621 | 36216 ft | 407 kts | 224° |
| 2026-05-04 15:20 | -19.61340 | -44.95368 | 36213 ft | 408 kts | 223° |
| 2026-05-04 15:21 | -19.65781 | -44.99134 | 36212 ft | 407 kts | 224° |
| 2026-05-04 15:22 | -19.72356 | -45.04764 | 36212 ft | 406 kts | 224° |
| 2026-05-04 15:22 | -19.78949 | -45.10458 | 36216 ft | 406 kts | 224° |
| 2026-05-04 15:23 | -19.83340 | -45.14261 | 36221 ft | 407 kts | 224° |
| 2026-05-04 15:23 | -19.87687 | -45.18028 | 36223 ft | 406 kts | 224° |
| 2026-05-04 15:24 | -19.96438 | -45.25620 | 36228 ft | 405 kts | 224° |
| 2026-05-04 15:25 | -20.00812 | -45.29417 | 36226 ft | 405 kts | 224° |
| 2026-05-04 15:26 | -20.07367 | -45.35115 | 36231 ft | 403 kts | 224° |
| 2026-05-04 15:26 | -20.13874 | -45.40778 | 36230 ft | 404 kts | 224° |
| 2026-05-04 15:27 | -20.20401 | -45.46465 | 36232 ft | 404 kts | 224° |
| 2026-05-04 15:28 | -20.26936 | -45.52166 | 36235 ft | 403 kts | 224° |
| 2026-05-04 15:29 | -20.33413 | -45.57826 | 36235 ft | 404 kts | 224° |
| 2026-05-04 15:30 | -20.48569 | -45.71095 | 36237 ft | 402 kts | 225° |
| 2026-05-04 15:31 | -20.55059 | -45.76784 | 36234 ft | 401 kts | 224° |
| 2026-05-04 15:32 | -20.65809 | -45.86225 | 36236 ft | 400 kts | 225° |
| 2026-05-04 15:34 | -20.76562 | -45.95687 | 36234 ft | 401 kts | 225° |
| 2026-05-04 15:34 | -20.83014 | -46.01366 | 36228 ft | 399 kts | 225° |
| 2026-05-04 15:35 | -20.89446 | -46.07036 | 36219 ft | 398 kts | 224° |
| 2026-05-04 15:36 | -20.95931 | -46.12622 | 36222 ft | 402 kts | 221° |
| 2026-05-04 15:36 | -21.00885 | -46.15473 | 36226 ft | 411 kts | 208° |
| 2026-05-04 15:37 | -21.06335 | -46.17555 | 36226 ft | 415 kts | 205° |
| 2026-05-04 15:37 | -21.11850 | -46.19444 | 36228 ft | 416 kts | 205° |
| 2026-05-04 15:38 | -21.17377 | -46.21339 | 36232 ft | 417 kts | 205° |
| 2026-05-04 15:38 | -21.22896 | -46.23198 | 36237 ft | 415 kts | 205° |
| 2026-05-04 15:39 | -21.28424 | -46.25052 | 36241 ft | 417 kts | 205° |
| 2026-05-04 15:40 | -21.36727 | -46.27861 | 36248 ft | 416 kts | 205° |
| 2026-05-04 15:40 | -21.42256 | -46.29743 | 36247 ft | 416 kts | 205° |
| 2026-05-04 15:41 | -21.47752 | -46.31615 | 36252 ft | 415 kts | 205° |
| 2026-05-04 15:41 | -21.53281 | -46.33504 | 36250 ft | 416 kts | 205° |
| 2026-05-04 15:42 | -21.58765 | -46.35377 | 36262 ft | 415 kts | 205° |
| 2026-05-04 15:42 | -21.64277 | -46.37262 | 36266 ft | 415 kts | 205° |
| 2026-05-04 15:43 | -21.69798 | -46.39200 | 36271 ft | 414 kts | 206° |
| 2026-05-04 15:43 | -21.75253 | -46.41209 | 36280 ft | 413 kts | 206° |
| 2026-05-04 15:44 | -21.80701 | -46.43231 | 36275 ft | 414 kts | 206° |
| 2026-05-04 15:44 | -21.86143 | -46.45243 | 36286 ft | 414 kts | 206° |
| 2026-05-04 15:45 | -21.91617 | -46.47261 | 36282 ft | 414 kts | 206° |
| 2026-05-04 15:45 | -21.97062 | -46.49269 | 36284 ft | 415 kts | 206° |
| 2026-05-04 15:46 | -22.02532 | -46.51284 | 36277 ft | 414 kts | 206° |
| 2026-05-04 15:46 | -22.07947 | -46.53276 | 35771 ft | 408 kts | 206° |
| 2026-05-04 15:46 | -22.10622 | -46.54259 | 35160 ft | 405 kts | 206° |
| 2026-05-04 15:47 | -22.13295 | -46.55246 | 34463 ft | 405 kts | 206° |
| 2026-05-04 15:47 | -22.15480 | -46.56053 | 33871 ft | 405 kts | 206° |
| 2026-05-04 15:47 | -22.18174 | -46.57050 | 33139 ft | 405 kts | 205° |
| 2026-05-04 15:47 | -22.20834 | -46.58035 | 32423 ft | 406 kts | 205° |
| 2026-05-04 15:48 | -22.23480 | -46.59015 | 31676 ft | 407 kts | 205° |
| 2026-05-04 15:48 | -22.26172 | -46.60012 | 30884 ft | 408 kts | 205° |
| 2026-05-04 15:48 | -22.31554 | -46.62006 | 29241 ft | 412 kts | 204° |
| 2026-05-04 15:49 | -22.34256 | -46.63007 | 28399 ft | 413 kts | 204° |
| 2026-05-04 15:49 | -22.36987 | -46.64034 | 27923 ft | 422 kts | 205° |
| 2026-05-04 15:49 | -22.39758 | -46.65276 | 27349 ft | 428 kts | 210° |
| 2026-05-04 15:49 | -22.42307 | -46.66816 | 26769 ft | 420 kts | 217° |
| 2026-05-04 15:50 | -22.44640 | -46.68671 | 26183 ft | 412 kts | 222° |
| 2026-05-04 15:50 | -22.46792 | -46.70654 | 25604 ft | 405 kts | 224° |
| 2026-05-04 15:50 | -22.48856 | -46.72697 | 25036 ft | 400 kts | 225° |
| 2026-05-04 15:50 | -22.50889 | -46.74776 | 24469 ft | 404 kts | 226° |
| 2026-05-04 15:51 | -22.52935 | -46.76886 | 23885 ft | 406 kts | 226° |
| 2026-05-04 15:51 | -22.54971 | -46.78984 | 23340 ft | 401 kts | 225° |
| 2026-05-04 15:51 | -22.56982 | -46.81046 | 23223 ft | 398 kts | 225° |
| 2026-05-04 15:51 | -22.58976 | -46.83087 | 23224 ft | 403 kts | 225° |
| 2026-05-04 15:52 | -22.61016 | -46.85169 | 23220 ft | 404 kts | 225° |
| 2026-05-04 15:52 | -22.63065 | -46.87255 | 23219 ft | 402 kts | 225° |
| 2026-05-04 15:52 | -22.65103 | -46.89321 | 23217 ft | 403 kts | 225° |
| 2026-05-04 15:52 | -22.67221 | -46.91363 | 23209 ft | 403 kts | 221° |
| 2026-05-04 15:53 | -22.69460 | -46.93196 | 23209 ft | 405 kts | 217° |
| 2026-05-04 15:53 | -22.71777 | -46.94878 | 23208 ft | 406 kts | 215° |
| 2026-05-04 15:53 | -22.74174 | -46.96519 | 23208 ft | 406 kts | 214° |
| 2026-05-04 15:53 | -22.76601 | -46.98141 | 23209 ft | 405 kts | 214° |
| 2026-05-04 15:54 | -22.78988 | -46.99729 | 22926 ft | 402 kts | 214° |
| 2026-05-04 15:54 | -22.81347 | -47.01303 | 22364 ft | 397 kts | 214° |
| 2026-05-04 15:54 | -22.83689 | -47.02874 | 21814 ft | 393 kts | 214° |
| 2026-05-04 15:54 | -22.85996 | -47.04430 | 21260 ft | 390 kts | 214° |
| 2026-05-04 15:55 | -22.88284 | -47.05983 | 20697 ft | 395 kts | 214° |
| 2026-05-04 15:55 | -22.90613 | -47.07563 | 20106 ft | 392 kts | 214° |
| 2026-05-04 15:55 | -22.92906 | -47.09112 | 19534 ft | 388 kts | 214° |
| 2026-05-04 15:55 | -22.95171 | -47.10640 | 18979 ft | 383 kts | 214° |
| 2026-05-04 15:56 | -22.97398 | -47.12143 | 18429 ft | 378 kts | 214° |
| 2026-05-04 15:56 | -22.99658 | -47.13605 | 17870 ft | 376 kts | 211° |
| 2026-05-04 15:56 | -23.02088 | -47.14728 | 17307 ft | 386 kts | 199° |
| 2026-05-04 15:56 | -23.04725 | -47.15049 | 16975 ft | 389 kts | 180° |
| 2026-05-04 15:57 | -23.07429 | -47.14627 | 16954 ft | 394 kts | 172° |
| 2026-05-04 15:57 | -23.10151 | -47.14019 | 16953 ft | 397 kts | 171° |
| 2026-05-04 15:57 | -23.12832 | -47.13392 | 16959 ft | 397 kts | 171° |
| 2026-05-04 15:57 | -23.15534 | -47.12761 | 16958 ft | 396 kts | 171° |
| 2026-05-04 15:58 | -23.18231 | -47.12141 | 16976 ft | 395 kts | 171° |
| 2026-05-04 15:58 | -23.20936 | -47.11529 | 16957 ft | 395 kts | 172° |
| 2026-05-04 15:58 | -23.23630 | -47.10927 | 16688 ft | 393 kts | 172° |
| 2026-05-04 15:58 | -23.26296 | -47.10335 | 16227 ft | 387 kts | 172° |
| 2026-05-04 15:59 | -23.28919 | -47.09758 | 15700 ft | 382 kts | 172° |
| 2026-05-04 15:59 | -23.31515 | -47.09189 | 15153 ft | 379 kts | 172° |
| 2026-05-04 15:59 | -23.34089 | -47.08627 | 14589 ft | 376 kts | 171° |
| 2026-05-04 15:59 | -23.36632 | -47.08072 | 14029 ft | 372 kts | 171° |
| 2026-05-04 16:00 | -23.39143 | -47.07488 | 13467 ft | 369 kts | 168° |
| 2026-05-04 16:00 | -23.41543 | -47.06534 | 12911 ft | 369 kts | 154° |
| 2026-05-04 16:00 | -23.43600 | -47.04831 | 12360 ft | 373 kts | 134° |
| 2026-05-04 16:00 | -23.45165 | -47.02546 | 11813 ft | 377 kts | 124° |
| 2026-05-04 16:01 | -23.46552 | -47.00159 | 11273 ft | 374 kts | 122° |
| 2026-05-04 16:01 | -23.47895 | -46.97784 | 10933 ft | 363 kts | 122° |
| 2026-05-04 16:01 | -23.49192 | -46.95490 | 10776 ft | 347 kts | 122° |
| 2026-05-04 16:01 | -23.50431 | -46.93317 | 10652 ft | 332 kts | 122° |
| 2026-05-04 16:02 | -23.51635 | -46.91222 | 10526 ft | 319 kts | 123° |
| 2026-05-04 16:02 | -23.52798 | -46.89215 | 10405 ft | 306 kts | 123° |
| 2026-05-04 16:02 | -23.55031 | -46.85378 | 9733 ft | 300 kts | 123° |
| 2026-05-04 16:03 | -23.56154 | -46.83524 | 9354 ft | 298 kts | 127° |
| 2026-05-04 16:03 | -23.57559 | -46.81899 | 9063 ft | 292 kts | 143° |
| 2026-05-04 16:03 | -23.59173 | -46.80718 | 9069 ft | 286 kts | 150° |
| 2026-05-04 16:03 | -23.60826 | -46.79664 | 9066 ft | 289 kts | 151° |
| 2026-05-04 16:04 | -23.62548 | -46.78565 | 9061 ft | 288 kts | 150° |
| 2026-05-04 16:04 | -23.65813 | -46.76378 | 9058 ft | 288 kts | 149° |
| 2026-05-04 16:04 | -23.67475 | -46.75233 | 9034 ft | 288 kts | 149° |
| 2026-05-04 16:05 | -23.69152 | -46.74068 | 8798 ft | 289 kts | 149° |
| 2026-05-04 16:05 | -23.70844 | -46.72893 | 8558 ft | 286 kts | 148° |
| 2026-05-04 16:05 | -23.74194 | -46.70565 | 8085 ft | 287 kts | 148° |
| 2026-05-04 16:06 | -23.75869 | -46.69403 | 7858 ft | 282 kts | 148° |
| 2026-05-04 16:06 | -23.80090 | -46.66470 | 7239 ft | 259 kts | 148° |
| 2026-05-04 16:07 | -23.82084 | -46.65080 | 6933 ft | 246 kts | 147° |
| 2026-05-04 16:07 | -23.84049 | -46.60904 | 6412 ft | 200 kts | 67° |
| 2026-05-04 16:08 | -23.83458 | -46.59593 | 6255 ft | 188 kts | 52° |
| 2026-05-04 16:08 | -23.80896 | -46.56475 | 5915 ft | 178 kts | 17° |
| 2026-05-04 16:09 | -23.78524 | -46.56171 | 5792 ft | 175 kts | 355° |
| 2026-05-04 16:09 | -23.76110 | -46.56723 | 5441 ft | 175 kts | 339° |
| 2026-05-04 16:10 | -23.73940 | -46.57921 | 4985 ft | 176 kts | 330° |
| 2026-05-04 16:11 | -23.70840 | -46.59992 | 4286 ft | 172 kts | 329° |
| 2026-05-04 16:11 | -23.69911 | -46.60630 | 4078 ft | 155 kts | 328° |
| 2026-05-04 16:12 | -23.67447 | -46.62333 | 3537 ft | 144 kts | 329° |
| 2026-05-04 16:13 | -23.63901 | -46.64796 | 2785 ft | 143 kts | 329° |
| 2026-05-04 16:14 | -23.62263 | -46.65926 | 2632 ft | 14 kts | 328° |
| 2026-05-04 16:14 | -23.62216 | -46.66035 | 2628 ft | 5 kts | 211° |
| 2026-05-04 16:15 | -23.62293 | -46.66013 | 2632 ft | 6 kts | 149° |
| 2026-05-04 16:16 | -23.62384 | -46.65952 | 2638 ft | 6 kts | 148° |
| 2026-05-04 16:16 | -23.62498 | -46.65871 | 2646 ft | 7 kts | 147° |
| 2026-05-04 16:17 | -23.62582 | -46.65814 | 2650 ft | 10 kts | 148° |
| 2026-05-04 16:18 | -23.62817 | -46.65650 | 2660 ft | 10 kts | 146° |
| 2026-05-04 16:18 | -23.62877 | -46.65629 | 2661 ft | 9 kts | 205° |
| 2026-05-04 16:19 | -23.62896 | -46.65697 | 2659 ft | 0 kts | 322° |
| 2026-05-04 16:19 | -23.62885 | -46.65705 | 2658 ft | 0 kts | 326° |